createdAt,value
2022-10-07T00:01:25.244Z,19.67
2022-10-07T00:03:51.590Z,19.67
2022-10-07T00:06:19.412Z,19.67
2022-10-07T00:08:46.795Z,19.68
2022-10-07T00:11:14.452Z,19.63
2022-10-07T00:13:42.024Z,19.57
2022-10-07T00:16:09.670Z,19.59
2022-10-07T00:18:37.795Z,19.60
2022-10-07T00:21:05.160Z,19.60
2022-10-07T00:23:31.740Z,19.62
2022-10-07T00:26:00.291Z,19.62
2022-10-07T00:28:26.649Z,19.61
2022-10-07T00:30:56.425Z,19.61
2022-10-07T00:33:22.945Z,19.61
2022-10-07T00:35:50.610Z,19.55
2022-10-07T00:38:16.953Z,19.52
2022-10-07T00:40:43.290Z,19.53
2022-10-07T00:43:20.677Z,19.55
2022-10-07T00:45:47.326Z,19.57
2022-10-07T00:48:13.725Z,19.56
2022-10-07T00:50:40.058Z,19.57
2022-10-07T00:53:07.717Z,19.57
2022-10-07T00:55:34.060Z,19.57
2022-10-07T00:58:02.724Z,19.58
2022-10-07T01:00:29.056Z,19.53
2022-10-07T01:02:55.529Z,19.47
2022-10-07T01:05:22.022Z,19.48
2022-10-07T01:07:49.886Z,19.50
2022-10-07T01:10:19.354Z,19.51
2022-10-07T01:12:50.428Z,19.51
2022-10-07T01:15:18.772Z,19.51
2022-10-07T01:17:50.566Z,19.52
2022-10-07T01:20:23.266Z,19.51
2022-10-07T01:22:59.126Z,19.52
2022-10-07T01:25:32.628Z,19.46
2022-10-07T01:28:03.578Z,19.42
2022-10-07T01:30:31.335Z,19.43
2022-10-07T01:33:00.034Z,19.44
2022-10-07T01:35:28.781Z,19.47
2022-10-07T01:37:57.532Z,19.46
2022-10-07T01:40:25.964Z,19.46
2022-10-07T01:42:53.365Z,19.46
2022-10-07T01:45:22.178Z,19.46
2022-10-07T01:47:49.001Z,19.46
2022-10-07T01:50:15.694Z,19.42
2022-10-07T01:52:49.114Z,19.38
2022-10-07T01:55:25.314Z,19.39
2022-10-07T01:57:58.998Z,19.41
2022-10-07T02:00:26.917Z,19.42
2022-10-07T02:03:02.771Z,19.42
2022-10-07T02:05:36.561Z,19.43
2022-10-07T02:08:09.832Z,19.42
2022-10-07T02:10:41.462Z,19.43
2022-10-07T02:13:08.954Z,19.41
2022-10-07T02:15:39.735Z,19.32
2022-10-07T02:18:08.291Z,19.33
2022-10-07T02:20:36.740Z,19.35
2022-10-07T02:23:05.371Z,19.37
2022-10-07T02:25:35.184Z,19.36
2022-10-07T02:28:05.154Z,19.36
2022-10-07T02:30:32.667Z,19.37
2022-10-07T02:33:02.799Z,19.37
2022-10-07T02:35:31.641Z,19.36
2022-10-07T02:38:00.012Z,19.38
2022-10-07T02:40:32.194Z,19.33
2022-10-07T02:43:00.242Z,19.28
2022-10-07T02:45:29.683Z,19.29
2022-10-07T02:47:58.746Z,19.31
2022-10-07T02:50:29.586Z,19.33
2022-10-07T02:52:56.061Z,19.32
2022-10-07T02:55:23.718Z,19.33
2022-10-07T02:57:52.256Z,19.34
2022-10-07T03:00:19.643Z,19.34
2022-10-07T03:02:49.424Z,19.35
2022-10-07T03:05:16.306Z,19.29
2022-10-07T03:07:44.212Z,19.23
2022-10-07T03:10:10.779Z,19.25
2022-10-07T03:12:37.099Z,19.26
2022-10-07T03:15:03.619Z,19.28
2022-10-07T03:17:30.079Z,19.27
2022-10-07T03:19:56.512Z,19.28
2022-10-07T03:22:23.009Z,19.29
2022-10-07T03:24:50.877Z,19.28
2022-10-07T03:27:17.307Z,19.28
2022-10-07T03:29:43.608Z,19.22
2022-10-07T03:32:09.972Z,19.21
2022-10-07T03:34:36.331Z,19.21
2022-10-07T03:37:02.842Z,19.24
2022-10-07T03:39:29.172Z,19.25
2022-10-07T03:41:56.928Z,19.25
2022-10-07T03:44:23.297Z,19.24
2022-10-07T03:46:50.111Z,19.26
2022-10-07T03:49:16.890Z,19.26
2022-10-07T03:51:43.521Z,19.20
2022-10-07T03:54:09.855Z,19.18
2022-10-07T03:56:36.242Z,19.19
2022-10-07T03:59:03.947Z,19.20
2022-10-07T04:01:30.468Z,19.22
2022-10-07T04:03:57.276Z,19.22
2022-10-07T04:06:23.711Z,19.22
2022-10-07T04:08:51.332Z,19.23
2022-10-07T04:11:17.715Z,19.22
2022-10-07T04:13:44.142Z,19.22
2022-10-07T04:16:11.811Z,19.14
2022-10-07T04:18:38.155Z,19.13
2022-10-07T04:21:04.673Z,19.15
2022-10-07T04:23:30.973Z,19.16
2022-10-07T04:25:57.360Z,19.16
2022-10-07T04:28:24.860Z,19.17
2022-10-07T04:30:51.593Z,19.17
2022-10-07T04:33:20.278Z,19.16
2022-10-07T04:35:47.107Z,19.16
2022-10-07T04:38:13.952Z,19.17
2022-10-07T04:40:40.917Z,19.15
2022-10-07T04:43:10.770Z,19.10
2022-10-07T04:45:37.613Z,19.07
2022-10-07T04:48:04.919Z,19.08
2022-10-07T04:50:32.866Z,19.11
2022-10-07T04:52:59.226Z,19.11
2022-10-07T04:55:25.577Z,19.12
2022-10-07T04:57:52.287Z,19.12
2022-10-07T05:00:18.638Z,19.11
2022-10-07T05:02:44.968Z,19.12
2022-10-07T05:05:11.324Z,19.13
2022-10-07T05:07:38.965Z,19.13
2022-10-07T05:10:05.700Z,19.06
2022-10-07T05:12:32.140Z,19.03
2022-10-07T05:14:58.488Z,18.85
2022-10-07T05:17:24.903Z,18.89
2022-10-07T05:19:51.245Z,18.95
2022-10-07T05:22:17.603Z,18.99
2022-10-07T05:24:45.237Z,19.02
2022-10-07T05:27:13.153Z,19.06
2022-10-07T05:29:39.482Z,19.11
2022-10-07T05:32:06.052Z,19.13
2022-10-07T05:34:32.461Z,19.13
2022-10-07T05:36:58.821Z,19.05
2022-10-07T05:39:25.345Z,19.00
2022-10-07T05:41:52.996Z,18.99
2022-10-07T05:44:19.434Z,19.03
2022-10-07T05:46:45.910Z,19.02
2022-10-07T05:49:12.394Z,19.05
2022-10-07T05:51:38.760Z,19.06
2022-10-07T05:54:05.153Z,19.04
2022-10-07T05:56:31.548Z,19.05
2022-10-07T05:58:59.183Z,19.03
2022-10-07T06:01:25.756Z,18.97
2022-10-07T06:03:52.975Z,18.94
2022-10-07T06:06:19.700Z,18.97
2022-10-07T06:08:46.140Z,18.99
2022-10-07T06:11:14.103Z,19.00
2022-10-07T06:13:40.441Z,18.98
2022-10-07T06:16:09.058Z,18.99
2022-10-07T06:18:35.721Z,19.00
2022-10-07T06:21:02.309Z,19.03
2022-10-07T06:23:29.345Z,19.02
2022-10-07T06:25:56.539Z,18.97
2022-10-07T06:28:23.373Z,18.98
2022-10-07T06:30:50.221Z,19.00
2022-10-07T06:33:18.698Z,19.00
2022-10-07T06:35:45.542Z,19.01
2022-10-07T06:38:12.132Z,18.97
2022-10-07T06:40:38.464Z,18.95
2022-10-07T06:43:05.103Z,18.93
2022-10-07T06:45:31.839Z,18.91
2022-10-07T06:47:58.373Z,18.90
2022-10-07T06:50:26.398Z,18.88
2022-10-07T06:52:52.832Z,18.85
2022-10-07T06:55:19.161Z,18.80
2022-10-07T06:57:46.385Z,18.81
2022-10-07T07:00:13.347Z,18.83
2022-10-07T07:02:39.721Z,18.82
2022-10-07T07:05:06.475Z,18.79
2022-10-07T07:07:34.098Z,18.79
2022-10-07T07:10:00.466Z,18.80
2022-10-07T07:12:26.790Z,18.77
2022-10-07T07:14:53.174Z,18.77
2022-10-07T07:17:19.474Z,18.78
2022-10-07T07:19:45.917Z,18.81
2022-10-07T07:22:12.415Z,18.81
2022-10-07T07:24:40.086Z,18.78
2022-10-07T07:27:06.423Z,18.83
2022-10-07T07:29:32.762Z,18.84
2022-10-07T07:31:59.112Z,18.84
2022-10-07T07:34:25.866Z,18.70
2022-10-07T07:36:52.250Z,18.52
2022-10-07T07:39:19.208Z,18.41
2022-10-07T07:41:46.987Z,18.37
2022-10-07T07:44:14.724Z,18.32
2022-10-07T07:46:42.152Z,18.34
2022-10-07T07:49:08.713Z,18.40
2022-10-07T07:51:35.207Z,18.19
2022-10-07T07:54:01.578Z,18.09
2022-10-07T07:56:28.518Z,18.23
2022-10-07T07:58:56.249Z,18.31
2022-10-07T08:01:22.690Z,18.38
2022-10-07T08:03:49.530Z,18.39
2022-10-07T08:06:16.955Z,18.28
2022-10-07T08:08:43.393Z,18.36
2022-10-07T08:11:10.496Z,18.37
2022-10-07T08:13:37.234Z,18.40
2022-10-07T08:16:05.187Z,18.46
2022-10-07T08:18:31.662Z,18.46
2022-10-07T08:20:58.603Z,18.53
2022-10-07T08:23:25.203Z,18.49
2022-10-07T08:25:52.925Z,18.60
2022-10-07T08:28:19.472Z,18.62
2022-10-07T08:30:45.854Z,18.56
2022-10-07T08:33:13.541Z,18.51
2022-10-07T08:35:39.903Z,18.36
2022-10-07T08:38:06.406Z,18.23
2022-10-07T08:40:32.826Z,18.19
2022-10-07T08:42:59.185Z,18.23
2022-10-07T08:45:28.049Z,18.29
2022-10-07T08:47:54.626Z,18.31
2022-10-07T08:50:25.203Z,18.29
2022-10-07T08:52:53.420Z,18.35
2022-10-07T08:55:23.619Z,18.40
2022-10-07T08:57:59.191Z,18.34
2022-10-07T09:00:25.691Z,18.40
2022-10-07T09:03:01.471Z,18.43
2022-10-07T09:05:31.478Z,18.39
2022-10-07T09:07:59.057Z,18.39
2022-10-07T09:10:30.121Z,18.48
2022-10-07T09:12:58.949Z,18.48
2022-10-07T09:15:38.508Z,18.52
2022-10-07T09:18:09.566Z,18.55
2022-10-07T09:20:39.453Z,18.54
2022-10-07T09:23:07.146Z,18.55
2022-10-07T09:25:33.570Z,18.61
2022-10-07T09:27:59.982Z,18.63
2022-10-07T09:30:27.222Z,18.60
2022-10-07T09:32:54.531Z,18.57
2022-10-07T09:35:23.553Z,18.56
2022-10-07T09:37:56.749Z,18.59
2022-10-07T09:40:31.114Z,18.64
2022-10-07T09:42:57.958Z,18.73
2022-10-07T09:45:26.231Z,18.74
2022-10-07T09:47:53.759Z,18.66
2022-10-07T09:50:30.354Z,18.72
2022-10-07T09:52:58.123Z,18.78
2022-10-07T09:55:28.452Z,18.89
2022-10-07T09:57:59.157Z,18.84
2022-10-07T10:00:26.096Z,18.89
2022-10-07T10:02:54.691Z,18.84
2022-10-07T10:05:22.769Z,18.92
2022-10-07T10:07:53.009Z,18.92
2022-10-07T10:10:23.095Z,19.02
2022-10-07T10:12:50.373Z,19.03
2022-10-07T10:15:23.348Z,18.95
2022-10-07T10:17:50.276Z,18.99
2022-10-07T10:20:25.087Z,18.98
2022-10-07T10:22:52.077Z,19.00
2022-10-07T10:25:23.021Z,19.10
2022-10-07T10:27:55.018Z,19.14
2022-10-07T10:30:21.939Z,19.26
2022-10-07T10:33:00.825Z,19.23
2022-10-07T10:35:28.126Z,19.23
2022-10-07T10:38:02.128Z,19.27
2022-10-07T10:40:31.875Z,19.34
2022-10-07T10:43:06.850Z,19.37
2022-10-07T10:45:34.822Z,19.35
2022-10-07T10:48:10.422Z,19.28
2022-10-07T10:50:42.078Z,19.29
2022-10-07T10:53:19.055Z,19.34
2022-10-07T10:55:57.547Z,19.40
2022-10-07T10:58:31.125Z,19.40
2022-10-07T11:01:00.965Z,19.48
2022-10-07T11:03:37.173Z,19.46
2022-10-07T11:06:05.802Z,19.59
2022-10-07T11:08:38.093Z,19.67
2022-10-07T11:11:06.319Z,19.71
2022-10-07T11:13:36.619Z,19.64
2022-10-07T11:16:06.729Z,19.69
2022-10-07T11:18:36.679Z,19.75
2022-10-07T11:21:06.139Z,19.78
2022-10-07T11:23:38.382Z,19.79
2022-10-07T11:26:10.708Z,19.80
2022-10-07T11:28:40.711Z,19.83
2022-10-07T11:31:09.347Z,19.74
2022-10-07T11:33:39.049Z,19.61
2022-10-07T11:36:09.023Z,19.53
2022-10-07T11:38:38.781Z,19.63
2022-10-07T11:41:08.281Z,19.64
2022-10-07T11:43:37.519Z,19.60
2022-10-07T11:46:11.744Z,19.65
2022-10-07T11:48:40.851Z,19.64
2022-10-07T11:51:08.143Z,19.66
2022-10-07T11:53:37.293Z,19.59
2022-10-07T11:56:05.747Z,19.60
2022-10-07T11:58:33.541Z,19.60
2022-10-07T12:01:10.424Z,19.60
2022-10-07T12:03:47.179Z,19.65
2022-10-07T12:06:13.576Z,19.69
2022-10-07T12:08:40.463Z,19.69
2022-10-07T12:11:21.333Z,19.65
2022-10-07T12:13:48.692Z,19.61
2022-10-07T12:16:29.927Z,19.66
2022-10-07T12:19:11.197Z,19.76
2022-10-07T12:21:52.374Z,19.79
2022-10-07T12:24:20.037Z,19.77
2022-10-07T12:26:47.642Z,19.77
2022-10-07T12:29:19.140Z,19.72
2022-10-07T12:31:46.775Z,19.73
2022-10-07T12:34:22.090Z,19.73
2022-10-07T12:36:48.526Z,19.76
2022-10-07T12:39:29.703Z,19.76
2022-10-07T12:41:58.129Z,19.78
2022-10-07T12:44:27.603Z,20.04
2022-10-07T12:46:55.761Z,19.92
2022-10-07T12:49:25.615Z,19.82
2022-10-07T12:51:53.152Z,19.82
2022-10-07T12:54:20.494Z,19.84
2022-10-07T12:56:47.947Z,19.84
2022-10-07T12:59:27.886Z,19.87
2022-10-07T13:02:10.946Z,19.85
2022-10-07T13:04:47.705Z,19.81
2022-10-07T13:07:37.541Z,19.79
2022-10-07T13:10:21.665Z,19.82
2022-10-07T13:12:49.626Z,19.80
2022-10-07T13:15:25.146Z,19.86
2022-10-07T13:17:54.742Z,19.87
2022-10-07T13:20:27.982Z,19.90
2022-10-07T13:22:54.358Z,19.89
2022-10-07T13:25:21.003Z,19.87
2022-10-07T13:27:51.164Z,19.87
2022-10-07T13:30:32.313Z,19.89
2022-10-07T13:33:13.418Z,19.87
2022-10-07T13:35:40.068Z,19.92
2022-10-07T13:38:06.469Z,19.95
2022-10-07T13:40:32.806Z,19.93
2022-10-07T13:43:00.894Z,19.87
2022-10-07T13:45:27.939Z,19.86
2022-10-07T13:47:54.985Z,19.89
2022-10-07T13:50:25.554Z,19.93
2022-10-07T13:52:52.489Z,19.90
2022-10-07T13:55:19.815Z,19.92
2022-10-07T13:57:46.346Z,19.91
2022-10-07T14:00:13.660Z,19.87
2022-10-07T14:02:40.621Z,19.86
2022-10-07T14:05:17.955Z,19.88
2022-10-07T14:07:45.677Z,19.91
2022-10-07T14:10:12.080Z,19.90
2022-10-07T14:12:41.161Z,19.92
2022-10-07T14:15:12.788Z,19.92
2022-10-07T14:17:41.078Z,19.91
2022-10-07T14:20:16.704Z,19.88
2022-10-07T14:22:46.312Z,20.01
2022-10-07T14:25:17.738Z,20.12
2022-10-07T14:27:52.564Z,20.20
2022-10-07T14:30:31.435Z,20.23
2022-10-07T14:33:01.441Z,20.26
2022-10-07T14:35:27.772Z,20.36
2022-10-07T14:38:14.138Z,20.32
2022-10-07T14:40:41.786Z,20.23
2022-10-07T14:43:08.327Z,20.22
2022-10-07T14:45:34.732Z,20.29
2022-10-07T14:48:01.239Z,20.32
2022-10-07T14:50:27.558Z,20.33
2022-10-07T14:52:54.073Z,20.35
2022-10-07T14:55:21.244Z,20.37
2022-10-07T14:57:48.959Z,20.43
2022-10-07T15:00:16.560Z,20.45
2022-10-07T15:02:43.230Z,20.36
2022-10-07T15:05:11.204Z,20.32
2022-10-07T15:07:37.612Z,20.37
2022-10-07T15:10:04.302Z,20.44
2022-10-07T15:12:30.792Z,20.47
2022-10-07T15:14:58.402Z,20.53
2022-10-07T15:17:24.754Z,20.39
2022-10-07T15:19:51.676Z,20.30
2022-10-07T15:22:18.027Z,20.22
2022-10-07T15:24:44.391Z,20.08
2022-10-07T15:27:10.709Z,20.11
2022-10-07T15:29:37.000Z,20.15
2022-10-07T15:32:04.664Z,20.19
2022-10-07T15:34:30.985Z,20.18
2022-10-07T15:36:57.315Z,20.21
2022-10-07T15:39:23.757Z,20.20
2022-10-07T15:41:50.319Z,20.15
2022-10-07T15:44:17.659Z,20.06
2022-10-07T15:46:44.183Z,20.09
2022-10-07T15:49:12.074Z,20.11
2022-10-07T15:51:38.513Z,20.15
2022-10-07T15:54:05.656Z,20.13
2022-10-07T15:56:32.446Z,20.18
2022-10-07T15:58:58.858Z,20.16
2022-10-07T16:01:25.256Z,20.06
2022-10-07T16:03:51.710Z,19.99
2022-10-07T16:06:20.776Z,20.05
2022-10-07T16:08:47.217Z,20.10
2022-10-07T16:11:13.910Z,20.13
2022-10-07T16:13:41.405Z,20.12
2022-10-07T16:16:08.980Z,20.13
2022-10-07T16:18:36.648Z,20.12
2022-10-07T16:21:03.655Z,20.13
2022-10-07T16:23:32.011Z,20.00
2022-10-07T16:26:02.364Z,19.99
2022-10-07T16:28:28.754Z,20.03
2022-10-07T16:30:55.152Z,20.09
2022-10-07T16:33:21.546Z,20.13
2022-10-07T16:35:47.881Z,20.13
2022-10-07T16:38:14.209Z,20.12
2022-10-07T16:40:50.505Z,20.12
2022-10-07T16:43:16.844Z,19.99
2022-10-07T16:45:43.300Z,19.98
2022-10-07T16:48:09.627Z,20.01
2022-10-07T16:50:36.000Z,20.02
2022-10-07T16:53:02.382Z,20.06
2022-10-07T16:55:28.841Z,20.08
2022-10-07T16:57:56.442Z,20.09
2022-10-07T17:00:22.821Z,20.07
2022-10-07T17:02:49.189Z,19.95
2022-10-07T17:05:15.527Z,19.96
2022-10-07T17:07:41.877Z,19.98
2022-10-07T17:10:08.622Z,20.02
2022-10-07T17:12:34.929Z,20.07
2022-10-07T17:15:02.584Z,20.07
2022-10-07T17:17:29.051Z,20.09
2022-10-07T17:19:55.369Z,20.09
2022-10-07T17:22:21.703Z,20.01
2022-10-07T17:24:48.066Z,19.94
2022-10-07T17:27:14.494Z,19.98
2022-10-07T17:29:40.865Z,20.00
2022-10-07T17:32:08.533Z,20.00
2022-10-07T17:34:34.873Z,20.05
2022-10-07T17:37:01.178Z,20.04
2022-10-07T17:39:27.494Z,20.06
2022-10-07T17:41:53.855Z,20.02
2022-10-07T17:44:20.168Z,19.94
2022-10-07T17:46:46.637Z,19.94
2022-10-07T17:49:14.413Z,19.97
2022-10-07T17:51:41.179Z,19.97
2022-10-07T17:54:07.714Z,19.99
2022-10-07T17:56:34.300Z,19.98
2022-10-07T17:59:01.202Z,19.99
2022-10-07T18:01:28.806Z,19.97
2022-10-07T18:03:55.942Z,19.88
2022-10-07T18:06:24.207Z,19.88
2022-10-07T18:08:50.555Z,19.92
2022-10-07T18:11:16.938Z,19.92
2022-10-07T18:13:43.252Z,19.93
2022-10-07T18:16:09.695Z,19.94
2022-10-07T18:18:36.052Z,19.94
2022-10-07T18:21:03.282Z,19.95
2022-10-07T18:23:31.571Z,19.94
2022-10-07T18:26:01.965Z,19.84
2022-10-07T18:28:29.276Z,19.85
2022-10-07T18:30:55.723Z,19.86
2022-10-07T18:33:22.174Z,19.89
2022-10-07T18:35:48.527Z,19.91
2022-10-07T18:38:14.857Z,19.90
2022-10-07T18:40:42.531Z,19.91
2022-10-07T18:43:08.900Z,19.90
2022-10-07T18:45:35.299Z,19.89
2022-10-07T18:48:01.710Z,19.82
2022-10-07T18:50:32.696Z,19.81
2022-10-07T18:53:00.069Z,19.83
2022-10-07T18:55:26.424Z,19.84
2022-10-07T18:57:54.162Z,19.86
2022-10-07T19:00:20.491Z,19.88
2022-10-07T19:02:49.058Z,19.86
2022-10-07T19:05:15.439Z,19.86
2022-10-07T19:07:41.766Z,19.86
2022-10-07T19:10:08.413Z,19.77
2022-10-07T19:12:34.775Z,19.74
2022-10-07T19:15:02.397Z,19.77
2022-10-07T19:17:28.749Z,19.79
2022-10-07T19:19:55.092Z,19.79
2022-10-07T19:22:21.406Z,19.80
2022-10-07T19:24:47.934Z,19.81
2022-10-07T19:27:14.283Z,19.80
2022-10-07T19:29:40.677Z,19.82
2022-10-07T19:32:09.019Z,19.81
2022-10-07T19:34:35.679Z,19.73
2022-10-07T19:37:02.022Z,19.71
2022-10-07T19:39:28.358Z,19.72
2022-10-07T19:41:54.736Z,19.74
2022-10-07T19:44:21.115Z,19.76
2022-10-07T19:46:50.020Z,19.77
2022-10-07T19:49:18.128Z,19.76
2022-10-07T19:51:44.456Z,19.77
2022-10-07T19:54:10.943Z,19.76
2022-10-07T19:56:38.203Z,19.70
2022-10-07T19:59:05.466Z,19.67
2022-10-07T20:01:32.863Z,19.68
2022-10-07T20:04:00.751Z,19.71
2022-10-07T20:06:28.728Z,19.70
2022-10-07T20:08:55.424Z,19.72
2022-10-07T20:11:22.368Z,19.70
2022-10-07T20:13:48.684Z,19.71
2022-10-07T20:16:16.404Z,19.71
2022-10-07T20:18:42.821Z,19.69
2022-10-07T20:21:10.240Z,19.64
2022-10-07T20:23:38.438Z,19.64
2022-10-07T20:26:05.434Z,19.65
2022-10-07T20:28:32.270Z,19.66
2022-10-07T20:31:01.095Z,19.67
2022-10-07T20:33:27.469Z,19.68
2022-10-07T20:35:53.828Z,19.69
2022-10-07T20:38:20.448Z,19.71
2022-10-07T20:40:52.932Z,19.72
2022-10-07T20:43:19.352Z,19.65
2022-10-07T20:45:45.769Z,19.61
2022-10-07T20:48:12.147Z,19.63
2022-10-07T20:50:38.610Z,19.64
2022-10-07T20:53:04.916Z,19.66
2022-10-07T20:55:36.055Z,19.67
2022-10-07T20:58:04.003Z,19.66
2022-10-07T21:00:30.720Z,19.68
2022-10-07T21:02:57.127Z,19.69
2022-10-07T21:05:23.524Z,19.68
2022-10-07T21:07:54.360Z,19.61
2022-10-07T21:10:21.075Z,19.60
2022-10-07T21:12:47.862Z,19.63
2022-10-07T21:15:15.907Z,19.64
2022-10-07T21:17:42.240Z,19.64
2022-10-07T21:20:08.666Z,19.66
2022-10-07T21:22:35.025Z,19.67
2022-10-07T21:25:01.355Z,19.69
2022-10-07T21:27:27.677Z,19.69
2022-10-07T21:29:54.013Z,19.60
2022-10-07T21:32:21.870Z,19.59
2022-10-07T21:34:48.201Z,19.61
2022-10-07T21:37:14.532Z,19.63
2022-10-07T21:39:40.949Z,19.65
2022-10-07T21:42:07.271Z,19.66
2022-10-07T21:44:33.610Z,19.67
2022-10-07T21:47:00.112Z,19.68
2022-10-07T21:49:27.951Z,19.70
2022-10-07T21:51:54.308Z,19.69
2022-10-07T21:54:20.636Z,19.60
2022-10-07T21:56:46.962Z,19.61
2022-10-07T21:59:13.647Z,19.64
2022-10-07T22:01:40.124Z,19.65
2022-10-07T22:04:06.686Z,19.67
2022-10-07T22:06:34.348Z,19.68
2022-10-07T22:09:00.674Z,19.68
2022-10-07T22:11:27.085Z,19.68
2022-10-07T22:13:53.433Z,19.68
2022-10-07T22:16:19.896Z,19.62
2022-10-07T22:18:46.848Z,19.60
2022-10-07T22:21:14.806Z,19.63
2022-10-07T22:23:42.977Z,19.64
2022-10-07T22:26:10.301Z,19.65
2022-10-07T22:28:36.720Z,19.66
2022-10-07T22:31:03.742Z,19.68
2022-10-07T22:33:30.394Z,19.68
2022-10-07T22:35:56.886Z,19.71
2022-10-07T22:38:23.263Z,19.71
2022-10-07T22:40:50.921Z,19.62
2022-10-07T22:43:17.301Z,19.62
2022-10-07T22:45:43.631Z,19.64
2022-10-07T22:48:09.940Z,19.65
2022-10-07T22:50:36.274Z,19.65
2022-10-07T22:53:02.605Z,19.67
2022-10-07T22:55:29.056Z,19.68
2022-10-07T22:57:56.698Z,19.68
2022-10-07T23:00:23.057Z,19.69
2022-10-07T23:02:49.832Z,19.64
2022-10-07T23:05:16.426Z,19.60
2022-10-07T23:07:42.951Z,19.63
2022-10-07T23:10:09.622Z,19.65
2022-10-07T23:12:35.970Z,19.67
2022-10-07T23:15:03.686Z,19.69
2022-10-07T23:17:30.064Z,19.68
2022-10-07T23:19:56.439Z,19.69
2022-10-07T23:22:22.741Z,19.70
2022-10-07T23:24:49.113Z,19.71
2022-10-07T23:27:15.436Z,19.64
2022-10-07T23:29:41.821Z,19.64
2022-10-07T23:32:09.779Z,19.65
2022-10-07T23:34:36.117Z,19.67
2022-10-07T23:37:02.437Z,19.69
2022-10-07T23:39:29.076Z,19.72
2022-10-07T23:41:55.384Z,19.72
2022-10-07T23:44:21.748Z,19.75
2022-10-07T23:46:48.277Z,19.76
2022-10-07T23:49:15.985Z,19.69
2022-10-07T23:51:42.472Z,19.64
2022-10-07T23:54:09.358Z,19.66
2022-10-07T23:56:35.693Z,19.68
2022-10-07T23:59:02.418Z,19.72
